Lopez Island, Washington
Current Conditions -  °F | °C
As of 3:53 PM on Saturday 22 Nov 2014 (Local Time) from KFHR Reporting Station
Clear Clear  
Wind Chill: 50°   Ceiling: Unl
Heat Index: 50°   Visibility: 10mi
Dew Point: 41°   Wind: 3mph
Humidity: 71%   Direction: 220°SW
Pressure: 29.92"   Gusts: NA
Location:  48.51°N, 122.91°W
Report Text: KFHR 222353Z AUTO 22003KT 10SM CLR 10/05 A2992 RMK AO2 SLP132 T01000050 10117 20083 51033
Loading
Personal Weather Stations






























Interactive Weather Map New forecast layout! Learn more

10-Day Weather Forecast

Advertisements
Track Severe Weather on mobile